sensor_id;sensor_type;location;lat;lon;timestamp;P1;durP1;ratioP1;P2;durP2;ratioP2
54416;SDS011;40326;51.220;7.250;2023-02-18T00:01:11;34.00;;;25.15;;
54416;SDS011;40326;51.220;7.250;2023-02-18T00:03:37;35.22;;;25.33;;
54416;SDS011;40326;51.220;7.250;2023-02-18T00:08:43;34.50;;;25.55;;
54416;SDS011;40326;51.220;7.250;2023-02-18T00:11:09;35.13;;;24.55;;
54416;SDS011;40326;51.220;7.250;2023-02-18T00:13:35;36.25;;;25.38;;
54416;SDS011;40326;51.220;7.250;2023-02-18T00:16:01;36.15;;;26.05;;
54416;SDS011;40326;51.220;7.250;2023-02-18T00:18:26;37.88;;;25.55;;
54416;SDS011;40326;51.220;7.250;2023-02-18T00:20:52;34.77;;;24.60;;
54416;SDS011;40326;51.220;7.250;2023-02-18T00:23:17;34.67;;;23.38;;
54416;SDS011;40326;51.220;7.250;2023-02-18T00:25:42;35.70;;;24.40;;
54416;SDS011;40326;51.220;7.250;2023-02-18T00:28:07;35.90;;;24.90;;
54416;SDS011;40326;51.220;7.250;2023-02-18T00:30:33;32.40;;;22.30;;
54416;SDS011;40326;51.220;7.250;2023-02-18T00:32:58;35.37;;;22.93;;
54416;SDS011;40326;51.220;7.250;2023-02-18T00:35:23;34.13;;;23.97;;
54416;SDS011;40326;51.220;7.250;2023-02-18T00:37:50;33.53;;;24.03;;
54416;SDS011;40326;51.220;7.250;2023-02-18T00:40:15;37.05;;;24.58;;
54416;SDS011;40326;51.220;7.250;2023-02-18T00:42:40;34.20;;;23.70;;
54416;SDS011;40326;51.220;7.250;2023-02-18T00:45:05;36.30;;;24.13;;
54416;SDS011;40326;51.220;7.250;2023-02-18T00:47:31;36.83;;;24.95;;
54416;SDS011;40326;51.220;7.250;2023-02-18T00:49:56;36.90;;;24.05;;
54416;SDS011;40326;51.220;7.250;2023-02-18T00:52:21;33.30;;;22.33;;
54416;SDS011;40326;51.220;7.250;2023-02-18T00:54:46;34.40;;;23.60;;
54416;SDS011;40326;51.220;7.250;2023-02-18T00:57:11;35.45;;;23.02;;
54416;SDS011;40326;51.220;7.250;2023-02-18T00:59:37;32.67;;;23.67;;
54416;SDS011;40326;51.220;7.250;2023-02-18T01:02:02;36.08;;;23.77;;
54416;SDS011;40326;51.220;7.250;2023-02-18T01:04:27;35.75;;;23.60;;
54416;SDS011;40326;51.220;7.250;2023-02-18T01:06:52;35.70;;;22.85;;
54416;SDS011;40326;51.220;7.250;2023-02-18T01:09:17;37.30;;;23.37;;
54416;SDS011;40326;51.220;7.250;2023-02-18T01:11:43;36.63;;;23.67;;
54416;SDS011;40326;51.220;7.250;2023-02-18T01:14:08;40.72;;;25.13;;
54416;SDS011;40326;51.220;7.250;2023-02-18T01:16:33;39.40;;;25.40;;
54416;SDS011;40326;51.220;7.250;2023-02-18T01:18:58;43.35;;;25.50;;
54416;SDS011;40326;51.220;7.250;2023-02-18T01:21:24;36.50;;;25.55;;
54416;SDS011;40326;51.220;7.250;2023-02-18T01:23:49;38.90;;;26.33;;
54416;SDS011;40326;51.220;7.250;2023-02-18T01:26:14;41.63;;;25.80;;
54416;SDS011;40326;51.220;7.250;2023-02-18T01:28:39;43.70;;;25.38;;
54416;SDS011;40326;51.220;7.250;2023-02-18T01:31:06;48.88;;;26.52;;
54416;SDS011;40326;51.220;7.250;2023-02-18T01:33:31;43.67;;;26.42;;
54416;SDS011;40326;51.220;7.250;2023-02-18T01:35:57;50.60;;;27.60;;
54416;SDS011;40326;51.220;7.250;2023-02-18T01:38:22;45.35;;;25.45;;
54416;SDS011;40326;51.220;7.250;2023-02-18T01:40:49;42.17;;;27.38;;
54416;SDS011;40326;51.220;7.250;2023-02-18T01:43:15;47.78;;;26.80;;
54416;SDS011;40326;51.220;7.250;2023-02-18T01:45:51;42.63;;;25.80;;
54416;SDS011;40326;51.220;7.250;2023-02-18T01:48:20;43.30;;;26.50;;
54416;SDS011;40326;51.220;7.250;2023-02-18T01:50:48;40.30;;;23.67;;
54416;SDS011;40326;51.220;7.250;2023-02-18T01:53:16;41.13;;;24.52;;
54416;SDS011;40326;51.220;7.250;2023-02-18T01:55:42;41.45;;;25.23;;
54416;SDS011;40326;51.220;7.250;2023-02-18T01:58:08;36.38;;;23.77;;
54416;SDS011;40326;51.220;7.250;2023-02-18T02:00:33;39.28;;;23.08;;
54416;SDS011;40326;51.220;7.250;2023-02-18T02:03:00;38.60;;;24.23;;
54416;SDS011;40326;51.220;7.250;2023-02-18T02:05:29;33.83;;;22.00;;
54416;SDS011;40326;51.220;7.250;2023-02-18T02:07:54;30.17;;;20.10;;
54416;SDS011;40326;51.220;7.250;2023-02-18T02:10:20;30.77;;;20.20;;
54416;SDS011;40326;51.220;7.250;2023-02-18T02:17:48;30.15;;;18.77;;
54416;SDS011;40326;51.220;7.250;2023-02-18T02:20:31;28.55;;;18.45;;
54416;SDS011;40326;51.220;7.250;2023-02-18T02:35:44;25.30;;;14.95;;
54416;SDS011;40326;51.220;7.250;2023-02-18T02:40:46;25.27;;;15.00;;
54416;SDS011;40326;51.220;7.250;2023-02-18T02:43:26;23.20;;;14.75;;
54416;SDS011;40326;51.220;7.250;2023-02-18T02:46:01;21.70;;;14.13;;
54416;SDS011;40326;51.220;7.250;2023-02-18T02:48:31;21.10;;;13.05;;
54416;SDS011;40326;51.220;7.250;2023-02-18T02:53:23;22.37;;;12.40;;
54416;SDS011;40326;51.220;7.250;2023-02-18T02:55:50;21.38;;;12.75;;
54416;SDS011;40326;51.220;7.250;2023-02-18T02:58:15;20.50;;;12.63;;
54416;SDS011;40326;51.220;7.250;2023-02-18T03:03:32;18.35;;;11.63;;
54416;SDS011;40326;51.220;7.250;2023-02-18T03:11:10;17.73;;;10.68;;
54416;SDS011;40326;51.220;7.250;2023-02-18T03:18:47;24.80;;;12.00;;
54416;SDS011;40326;51.220;7.250;2023-02-18T03:21:29;21.13;;;12.13;;
54416;SDS011;40326;51.220;7.250;2023-02-18T03:23:55;19.35;;;10.98;;
54416;SDS011;40326;51.220;7.250;2023-02-18T03:26:22;18.02;;;10.63;;
54416;SDS011;40326;51.220;7.250;2023-02-18T03:28:48;17.70;;;9.48;;
54416;SDS011;40326;51.220;7.250;2023-02-18T03:31:15;20.05;;;10.38;;
54416;SDS011;40326;51.220;7.250;2023-02-18T03:33:47;24.75;;;12.40;;
54416;SDS011;40326;51.220;7.250;2023-02-18T03:36:13;28.55;;;12.70;;
54416;SDS011;40326;51.220;7.250;2023-02-18T03:38:41;49.22;;;13.90;;
54416;SDS011;40326;51.220;7.250;2023-02-18T03:41:07;59.63;;;15.85;;
54416;SDS011;40326;51.220;7.250;2023-02-18T03:43:33;101.05;;;19.25;;
54416;SDS011;40326;51.220;7.250;2023-02-18T03:45:58;42.70;;;14.45;;
54416;SDS011;40326;51.220;7.250;2023-02-18T03:48:23;29.35;;;13.80;;
54416;SDS011;40326;51.220;7.250;2023-02-18T03:50:48;26.65;;;13.48;;
54416;SDS011;40326;51.220;7.250;2023-02-18T03:53:14;23.88;;;13.13;;
54416;SDS011;40326;51.220;7.250;2023-02-18T03:55:39;23.88;;;12.70;;
54416;SDS011;40326;51.220;7.250;2023-02-18T03:58:04;20.77;;;12.05;;
54416;SDS011;40326;51.220;7.250;2023-02-18T04:00:29;22.87;;;11.53;;
54416;SDS011;40326;51.220;7.250;2023-02-18T04:02:54;21.50;;;11.07;;
54416;SDS011;40326;51.220;7.250;2023-02-18T04:05:20;20.38;;;10.45;;
54416;SDS011;40326;51.220;7.250;2023-02-18T04:07:45;17.80;;;9.88;;
54416;SDS011;40326;51.220;7.250;2023-02-18T04:10:10;18.73;;;11.00;;
54416;SDS011;40326;51.220;7.250;2023-02-18T04:12:35;16.20;;;10.48;;
54416;SDS011;40326;51.220;7.250;2023-02-18T04:15:00;16.77;;;10.27;;
54416;SDS011;40326;51.220;7.250;2023-02-18T04:17:26;18.73;;;11.18;;
54416;SDS011;40326;51.220;7.250;2023-02-18T04:19:51;16.20;;;9.98;;
54416;SDS011;40326;51.220;7.250;2023-02-18T04:22:16;17.67;;;10.20;;
54416;SDS011;40326;51.220;7.250;2023-02-18T04:24:41;15.55;;;9.00;;
54416;SDS011;40326;51.220;7.250;2023-02-18T04:27:06;13.50;;;8.95;;
54416;SDS011;40326;51.220;7.250;2023-02-18T04:29:32;13.38;;;9.80;;
54416;SDS011;40326;51.220;7.250;2023-02-18T04:31:57;13.30;;;8.73;;
54416;SDS011;40326;51.220;7.250;2023-02-18T04:34:22;12.57;;;7.83;;
54416;SDS011;40326;51.220;7.250;2023-02-18T04:36:47;11.52;;;7.25;;
54416;SDS011;40326;51.220;7.250;2023-02-18T04:39:12;10.45;;;7.07;;
54416;SDS011;40326;51.220;7.250;2023-02-18T04:41:38;12.00;;;7.30;;
54416;SDS011;40326;51.220;7.250;2023-02-18T04:44:03;9.60;;;6.30;;
54416;SDS011;40326;51.220;7.250;2023-02-18T04:46:28;10.93;;;6.30;;
54416;SDS011;40326;51.220;7.250;2023-02-18T04:48:53;9.90;;;6.28;;
54416;SDS011;40326;51.220;7.250;2023-02-18T04:51:19;9.95;;;7.43;;
54416;SDS011;40326;51.220;7.250;2023-02-18T04:53:44;8.65;;;5.25;;
54416;SDS011;40326;51.220;7.250;2023-02-18T04:56:10;10.73;;;5.82;;
54416;SDS011;40326;51.220;7.250;2023-02-18T04:58:35;8.77;;;4.95;;
54416;SDS011;40326;51.220;7.250;2023-02-18T05:01:01;8.05;;;5.57;;
54416;SDS011;40326;51.220;7.250;2023-02-18T05:03:26;8.68;;;5.05;;
54416;SDS011;40326;51.220;7.250;2023-02-18T05:05:51;8.23;;;4.78;;
54416;SDS011;40326;51.220;7.250;2023-02-18T05:08:17;8.52;;;4.95;;
54416;SDS011;40326;51.220;7.250;2023-02-18T05:10:43;7.65;;;4.97;;
54416;SDS011;40326;51.220;7.250;2023-02-18T05:13:08;6.68;;;4.25;;
54416;SDS011;40326;51.220;7.250;2023-02-18T05:15:33;7.05;;;4.22;;
54416;SDS011;40326;51.220;7.250;2023-02-18T05:17:59;7.13;;;3.80;;
54416;SDS011;40326;51.220;7.250;2023-02-18T05:20:24;6.63;;;3.72;;
54416;SDS011;40326;51.220;7.250;2023-02-18T05:22:49;5.85;;;3.72;;
54416;SDS011;40326;51.220;7.250;2023-02-18T05:25:14;6.07;;;4.03;;
54416;SDS011;40326;51.220;7.250;2023-02-18T05:27:39;5.80;;;3.53;;
54416;SDS011;40326;51.220;7.250;2023-02-18T05:30:05;6.05;;;3.80;;
54416;SDS011;40326;51.220;7.250;2023-02-18T05:32:30;6.70;;;4.03;;
54416;SDS011;40326;51.220;7.250;2023-02-18T05:34:55;7.77;;;3.60;;
54416;SDS011;40326;51.220;7.250;2023-02-18T05:37:20;6.05;;;3.90;;
54416;SDS011;40326;51.220;7.250;2023-02-18T05:39:46;6.22;;;3.90;;
54416;SDS011;40326;51.220;7.250;2023-02-18T05:42:11;6.35;;;4.20;;
54416;SDS011;40326;51.220;7.250;2023-02-18T05:44:36;6.72;;;4.18;;
54416;SDS011;40326;51.220;7.250;2023-02-18T05:47:03;6.07;;;3.90;;
54416;SDS011;40326;51.220;7.250;2023-02-18T05:49:28;6.82;;;4.53;;
54416;SDS011;40326;51.220;7.250;2023-02-18T05:51:54;7.05;;;3.90;;
54416;SDS011;40326;51.220;7.250;2023-02-18T05:54:19;6.93;;;3.75;;
54416;SDS011;40326;51.220;7.250;2023-02-18T05:56:44;5.82;;;3.90;;
54416;SDS011;40326;51.220;7.250;2023-02-18T05:59:10;6.97;;;4.45;;
54416;SDS011;40326;51.220;7.250;2023-02-18T06:01:35;7.32;;;4.30;;
54416;SDS011;40326;51.220;7.250;2023-02-18T06:04:00;7.43;;;5.07;;
54416;SDS011;40326;51.220;7.250;2023-02-18T06:06:25;8.93;;;5.43;;
54416;SDS011;40326;51.220;7.250;2023-02-18T06:08:50;8.20;;;5.65;;
54416;SDS011;40326;51.220;7.250;2023-02-18T06:11:16;10.25;;;6.80;;
54416;SDS011;40326;51.220;7.250;2023-02-18T06:13:41;8.43;;;6.10;;
54416;SDS011;40326;51.220;7.250;2023-02-18T06:16:06;8.20;;;6.03;;
54416;SDS011;40326;51.220;7.250;2023-02-18T06:18:31;8.57;;;5.37;;
54416;SDS011;40326;51.220;7.250;2023-02-18T06:20:56;8.13;;;5.28;;
54416;SDS011;40326;51.220;7.250;2023-02-18T06:23:22;8.38;;;5.40;;
54416;SDS011;40326;51.220;7.250;2023-02-18T06:25:47;8.57;;;5.22;;
54416;SDS011;40326;51.220;7.250;2023-02-18T06:28:13;7.78;;;5.20;;
54416;SDS011;40326;51.220;7.250;2023-02-18T06:30:38;7.93;;;5.57;;
54416;SDS011;40326;51.220;7.250;2023-02-18T06:33:03;10.13;;;6.85;;
54416;SDS011;40326;51.220;7.250;2023-02-18T06:35:29;8.20;;;6.03;;
54416;SDS011;40326;51.220;7.250;2023-02-18T06:37:54;8.23;;;5.90;;
54416;SDS011;40326;51.220;7.250;2023-02-18T06:40:19;11.43;;;7.47;;
54416;SDS011;40326;51.220;7.250;2023-02-18T06:42:44;12.00;;;7.68;;
54416;SDS011;40326;51.220;7.250;2023-02-18T06:45:10;10.88;;;7.63;;
54416;SDS011;40326;51.220;7.250;2023-02-18T06:47:35;12.25;;;7.97;;
54416;SDS011;40326;51.220;7.250;2023-02-18T06:50:00;12.95;;;9.15;;
54416;SDS011;40326;51.220;7.250;2023-02-18T06:52:25;14.68;;;10.13;;
54416;SDS011;40326;51.220;7.250;2023-02-18T06:54:50;16.50;;;11.13;;
54416;SDS011;40326;51.220;7.250;2023-02-18T06:57:16;15.25;;;10.50;;
54416;SDS011;40326;51.220;7.250;2023-02-18T06:59:41;16.35;;;10.63;;
54416;SDS011;40326;51.220;7.250;2023-02-18T07:02:06;20.67;;;13.80;;
54416;SDS011;40326;51.220;7.250;2023-02-18T07:04:31;19.70;;;12.65;;
54416;SDS011;40326;51.220;7.250;2023-02-18T07:06:57;17.90;;;11.93;;
54416;SDS011;40326;51.220;7.250;2023-02-18T07:09:22;17.95;;;12.10;;
54416;SDS011;40326;51.220;7.250;2023-02-18T07:11:47;18.02;;;13.02;;
54416;SDS011;40326;51.220;7.250;2023-02-18T07:14:12;20.60;;;15.75;;
54416;SDS011;40326;51.220;7.250;2023-02-18T07:16:37;20.35;;;13.82;;
54416;SDS011;40326;51.220;7.250;2023-02-18T07:19:03;18.25;;;12.70;;
54416;SDS011;40326;51.220;7.250;2023-02-18T07:21:28;17.17;;;12.48;;
54416;SDS011;40326;51.220;7.250;2023-02-18T07:23:53;17.53;;;12.57;;
54416;SDS011;40326;51.220;7.250;2023-02-18T07:26:18;15.02;;;10.45;;
54416;SDS011;40326;51.220;7.250;2023-02-18T07:28:43;15.00;;;11.68;;
54416;SDS011;40326;51.220;7.250;2023-02-18T07:31:09;13.32;;;10.40;;
54416;SDS011;40326;51.220;7.250;2023-02-18T07:33:34;13.02;;;10.75;;
54416;SDS011;40326;51.220;7.250;2023-02-18T07:36:00;14.35;;;9.50;;
54416;SDS011;40326;51.220;7.250;2023-02-18T07:38:25;10.90;;;7.85;;
54416;SDS011;40326;51.220;7.250;2023-02-18T07:40:51;8.55;;;5.85;;
54416;SDS011;40326;51.220;7.250;2023-02-18T07:43:16;9.27;;;6.38;;
54416;SDS011;40326;51.220;7.250;2023-02-18T07:45:41;7.83;;;5.50;;
54416;SDS011;40326;51.220;7.250;2023-02-18T07:48:07;8.68;;;6.32;;
54416;SDS011;40326;51.220;7.250;2023-02-18T07:50:32;6.43;;;4.57;;
54416;SDS011;40326;51.220;7.250;2023-02-18T07:53:03;5.95;;;3.97;;
54416;SDS011;40326;51.220;7.250;2023-02-18T07:55:29;6.82;;;4.50;;
54416;SDS011;40326;51.220;7.250;2023-02-18T07:58:13;5.35;;;3.17;;
54416;SDS011;40326;51.220;7.250;2023-02-18T08:00:38;5.38;;;3.53;;
54416;SDS011;40326;51.220;7.250;2023-02-18T08:03:03;6.93;;;3.23;;
54416;SDS011;40326;51.220;7.250;2023-02-18T08:05:29;5.28;;;3.00;;
54416;SDS011;40326;51.220;7.250;2023-02-18T08:07:54;5.22;;;2.80;;
54416;SDS011;40326;51.220;7.250;2023-02-18T08:10:20;6.25;;;4.07;;
54416;SDS011;40326;51.220;7.250;2023-02-18T08:12:45;5.60;;;2.75;;
54416;SDS011;40326;51.220;7.250;2023-02-18T08:15:10;4.57;;;2.60;;
54416;SDS011;40326;51.220;7.250;2023-02-18T08:17:35;5.28;;;2.83;;
54416;SDS011;40326;51.220;7.250;2023-02-18T08:20:00;5.47;;;3.08;;
54416;SDS011;40326;51.220;7.250;2023-02-18T08:22:26;5.15;;;2.63;;
54416;SDS011;40326;51.220;7.250;2023-02-18T08:24:53;5.53;;;3.50;;
54416;SDS011;40326;51.220;7.250;2023-02-18T08:27:18;5.63;;;2.85;;
54416;SDS011;40326;51.220;7.250;2023-02-18T08:29:43;5.83;;;2.90;;
54416;SDS011;40326;51.220;7.250;2023-02-18T08:32:08;4.80;;;3.05;;
54416;SDS011;40326;51.220;7.250;2023-02-18T08:34:33;5.85;;;3.10;;
54416;SDS011;40326;51.220;7.250;2023-02-18T08:37:00;4.97;;;2.70;;
54416;SDS011;40326;51.220;7.250;2023-02-18T08:39:25;5.82;;;2.90;;
54416;SDS011;40326;51.220;7.250;2023-02-18T08:41:50;7.60;;;3.03;;
54416;SDS011;40326;51.220;7.250;2023-02-18T08:44:16;5.43;;;2.97;;
54416;SDS011;40326;51.220;7.250;2023-02-18T08:46:41;6.70;;;3.30;;
54416;SDS011;40326;51.220;7.250;2023-02-18T08:49:06;6.80;;;3.35;;
54416;SDS011;40326;51.220;7.250;2023-02-18T08:51:31;10.18;;;3.83;;
54416;SDS011;40326;51.220;7.250;2023-02-18T08:53:57;6.32;;;4.00;;
54416;SDS011;40326;51.220;7.250;2023-02-18T08:56:22;7.82;;;3.65;;
54416;SDS011;40326;51.220;7.250;2023-02-18T08:58:47;9.25;;;4.10;;
54416;SDS011;40326;51.220;7.250;2023-02-18T09:01:12;9.02;;;4.68;;
54416;SDS011;40326;51.220;7.250;2023-02-18T09:03:38;8.70;;;4.88;;
54416;SDS011;40326;51.220;7.250;2023-02-18T09:06:03;8.45;;;4.85;;
54416;SDS011;40326;51.220;7.250;2023-02-18T09:08:29;8.18;;;4.30;;
54416;SDS011;40326;51.220;7.250;2023-02-18T09:10:55;6.68;;;4.32;;
54416;SDS011;40326;51.220;7.250;2023-02-18T09:13:20;8.93;;;4.75;;
54416;SDS011;40326;51.220;7.250;2023-02-18T09:15:45;7.95;;;4.80;;
54416;SDS011;40326;51.220;7.250;2023-02-18T09:18:19;11.55;;;5.75;;
54416;SDS011;40326;51.220;7.250;2023-02-18T09:20:44;11.63;;;5.47;;
54416;SDS011;40326;51.220;7.250;2023-02-18T09:23:09;12.18;;;6.55;;
54416;SDS011;40326;51.220;7.250;2023-02-18T09:25:34;11.77;;;5.32;;
54416;SDS011;40326;51.220;7.250;2023-02-18T09:28:03;9.85;;;5.22;;
54416;SDS011;40326;51.220;7.250;2023-02-18T09:30:28;10.52;;;5.95;;
54416;SDS011;40326;51.220;7.250;2023-02-18T09:32:54;11.40;;;5.75;;
54416;SDS011;40326;51.220;7.250;2023-02-18T09:35:19;11.80;;;5.88;;
54416;SDS011;40326;51.220;7.250;2023-02-18T09:37:44;18.60;;;6.65;;
54416;SDS011;40326;51.220;7.250;2023-02-18T09:40:11;11.48;;;5.90;;
54416;SDS011;40326;51.220;7.250;2023-02-18T09:42:45;11.32;;;5.88;;
54416;SDS011;40326;51.220;7.250;2023-02-18T09:45:10;13.88;;;5.95;;
54416;SDS011;40326;51.220;7.250;2023-02-18T09:47:38;15.10;;;5.63;;
54416;SDS011;40326;51.220;7.250;2023-02-18T09:50:05;13.20;;;5.50;;
54416;SDS011;40326;51.220;7.250;2023-02-18T09:52:32;11.65;;;5.18;;
54416;SDS011;40326;51.220;7.250;2023-02-18T09:54:58;9.85;;;4.93;;
54416;SDS011;40326;51.220;7.250;2023-02-18T09:57:28;11.45;;;4.90;;
54416;SDS011;40326;51.220;7.250;2023-02-18T10:00:00;13.70;;;5.15;;
54416;SDS011;40326;51.220;7.250;2023-02-18T10:02:28;15.48;;;5.38;;
54416;SDS011;40326;51.220;7.250;2023-02-18T10:04:54;13.25;;;5.35;;
54416;SDS011;40326;51.220;7.250;2023-02-18T10:07:23;13.63;;;5.80;;
54416;SDS011;40326;51.220;7.250;2023-02-18T10:09:50;13.02;;;5.20;;
54416;SDS011;40326;51.220;7.250;2023-02-18T10:12:17;12.73;;;5.65;;
54416;SDS011;40326;51.220;7.250;2023-02-18T10:14:43;12.65;;;5.43;;
54416;SDS011;40326;51.220;7.250;2023-02-18T10:17:11;16.33;;;6.47;;
54416;SDS011;40326;51.220;7.250;2023-02-18T10:19:37;13.93;;;5.68;;
54416;SDS011;40326;51.220;7.250;2023-02-18T10:22:05;14.05;;;6.03;;
54416;SDS011;40326;51.220;7.250;2023-02-18T10:25:05;12.60;;;5.65;;
54416;SDS011;40326;51.220;7.250;2023-02-18T10:27:24;17.40;;;5.97;;
54416;SDS011;40326;51.220;7.250;2023-02-18T10:29:50;15.82;;;6.32;;
54416;SDS011;40326;51.220;7.250;2023-02-18T10:32:59;14.00;;;6.15;;
54416;SDS011;40326;51.220;7.250;2023-02-18T10:35:19;16.13;;;6.38;;
54416;SDS011;40326;51.220;7.250;2023-02-18T10:45:44;13.88;;;5.95;;
54416;SDS011;40326;51.220;7.250;2023-02-18T10:50:40;14.10;;;5.75;;
54416;SDS011;40326;51.220;7.250;2023-02-18T10:55:38;17.27;;;8.15;;
54416;SDS011;40326;51.220;7.250;2023-02-18T10:58:21;12.88;;;7.22;;
54416;SDS011;40326;51.220;7.250;2023-02-18T11:00:48;15.40;;;7.30;;
54416;SDS011;40326;51.220;7.250;2023-02-18T11:03:20;14.82;;;7.75;;
54416;SDS011;40326;51.220;7.250;2023-02-18T11:05:47;16.87;;;7.00;;
54416;SDS011;40326;51.220;7.250;2023-02-18T11:08:16;18.95;;;7.85;;
54416;SDS011;40326;51.220;7.250;2023-02-18T11:10:44;13.10;;;6.63;;
54416;SDS011;40326;51.220;7.250;2023-02-18T11:13:11;10.70;;;6.82;;
54416;SDS011;40326;51.220;7.250;2023-02-18T11:15:37;14.13;;;7.25;;
54416;SDS011;40326;51.220;7.250;2023-02-18T11:21:19;14.10;;;7.13;;
54416;SDS011;40326;51.220;7.250;2023-02-18T11:23:46;17.45;;;7.65;;
54416;SDS011;40326;51.220;7.250;2023-02-18T11:26:12;12.82;;;6.88;;
54416;SDS011;40326;51.220;7.250;2023-02-18T11:28:48;16.30;;;10.65;;
54416;SDS011;40326;51.220;7.250;2023-02-18T11:31:19;13.90;;;10.27;;
54416;SDS011;40326;51.220;7.250;2023-02-18T11:33:50;9.27;;;5.53;;
54416;SDS011;40326;51.220;7.250;2023-02-18T11:38:52;9.80;;;6.10;;
54416;SDS011;40326;51.220;7.250;2023-02-18T11:41:32;8.70;;;5.00;;
54416;SDS011;40326;51.220;7.250;2023-02-18T11:43:57;11.25;;;6.30;;
54416;SDS011;40326;51.220;7.250;2023-02-18T11:46:24;9.90;;;5.25;;
54416;SDS011;40326;51.220;7.250;2023-02-18T11:48:51;6.75;;;4.43;;
54416;SDS011;40326;51.220;7.250;2023-02-18T11:51:17;8.43;;;4.93;;
54416;SDS011;40326;51.220;7.250;2023-02-18T11:56:32;7.40;;;4.65;;
54416;SDS011;40326;51.220;7.250;2023-02-18T11:58:58;8.30;;;4.88;;
54416;SDS011;40326;51.220;7.250;2023-02-18T12:03:53;8.50;;;5.78;;
54416;SDS011;40326;51.220;7.250;2023-02-18T12:08:50;7.27;;;5.97;;
54416;SDS011;40326;51.220;7.250;2023-02-18T12:11:21;8.00;;;5.20;;
54416;SDS011;40326;51.220;7.250;2023-02-18T12:13:52;6.05;;;4.35;;
54416;SDS011;40326;51.220;7.250;2023-02-18T12:16:35;8.10;;;4.35;;
54416;SDS011;40326;51.220;7.250;2023-02-18T12:34:10;14.17;;;8.17;;
54416;SDS011;40326;51.220;7.250;2023-02-18T12:39:11;8.48;;;4.32;;
54416;SDS011;40326;51.220;7.250;2023-02-18T12:46:59;7.85;;;4.55;;
54416;SDS011;40326;51.220;7.250;2023-02-18T13:10:40;7.70;;;5.10;;
54416;SDS011;40326;51.220;7.250;2023-02-18T13:15:37;6.47;;;4.50;;
54416;SDS011;40326;51.220;7.250;2023-02-18T13:18:04;9.90;;;5.78;;
54416;SDS011;40326;51.220;7.250;2023-02-18T13:20:36;7.95;;;4.97;;
54416;SDS011;40326;51.220;7.250;2023-02-18T13:23:02;8.25;;;5.28;;
54416;SDS011;40326;51.220;7.250;2023-02-18T13:25:28;8.38;;;5.28;;
54416;SDS011;40326;51.220;7.250;2023-02-18T13:30:29;8.13;;;5.28;;
54416;SDS011;40326;51.220;7.250;2023-02-18T13:35:28;8.83;;;5.50;;
54416;SDS011;40326;51.220;7.250;2023-02-18T13:38:03;10.73;;;5.78;;
54416;SDS011;40326;51.220;7.250;2023-02-18T13:40:34;9.45;;;5.88;;
54416;SDS011;40326;51.220;7.250;2023-02-18T13:45:57;8.45;;;5.35;;
54416;SDS011;40326;51.220;7.250;2023-02-18T13:48:26;9.55;;;6.10;;
54416;SDS011;40326;51.220;7.250;2023-02-18T13:50:52;9.45;;;6.28;;
54416;SDS011;40326;51.220;7.250;2023-02-18T13:53:22;8.88;;;6.07;;
54416;SDS011;40326;51.220;7.250;2023-02-18T13:58:15;9.90;;;6.67;;
54416;SDS011;40326;51.220;7.250;2023-02-18T14:00:45;14.07;;;7.65;;
54416;SDS011;40326;51.220;7.250;2023-02-18T14:03:20;10.50;;;7.88;;
54416;SDS011;40326;51.220;7.250;2023-02-18T14:05:45;11.82;;;9.10;;
54416;SDS011;40326;51.220;7.250;2023-02-18T14:08:30;11.93;;;8.05;;
54416;SDS011;40326;51.220;7.250;2023-02-18T14:16:04;9.05;;;6.47;;
54416;SDS011;40326;51.220;7.250;2023-02-18T14:19:24;10.50;;;7.38;;
54416;SDS011;40326;51.220;7.250;2023-02-18T14:23:41;10.95;;;7.03;;
54416;SDS011;40326;51.220;7.250;2023-02-18T14:28:40;41.65;;;35.17;;
54416;SDS011;40326;51.220;7.250;2023-02-18T14:33:35;17.75;;;11.73;;
54416;SDS011;40326;51.220;7.250;2023-02-18T14:38:49;19.48;;;13.75;;
54416;SDS011;40326;51.220;7.250;2023-02-18T14:41:18;21.20;;;14.07;;
54416;SDS011;40326;51.220;7.250;2023-02-18T14:46:34;19.90;;;14.73;;
54416;SDS011;40326;51.220;7.250;2023-02-18T14:49:13;19.27;;;12.90;;
54416;SDS011;40326;51.220;7.250;2023-02-18T14:51:41;22.08;;;14.13;;
54416;SDS011;40326;51.220;7.250;2023-02-18T14:54:11;19.90;;;15.10;;
54416;SDS011;40326;51.220;7.250;2023-02-18T14:56:37;16.70;;;11.63;;
54416;SDS011;40326;51.220;7.250;2023-02-18T14:59:03;16.30;;;11.38;;
54416;SDS011;40326;51.220;7.250;2023-02-18T15:01:30;15.20;;;9.73;;
54416;SDS011;40326;51.220;7.250;2023-02-18T15:03:55;15.00;;;9.35;;
54416;SDS011;40326;51.220;7.250;2023-02-18T15:06:22;13.68;;;9.85;;
54416;SDS011;40326;51.220;7.250;2023-02-18T15:08:47;17.83;;;9.90;;
54416;SDS011;40326;51.220;7.250;2023-02-18T15:11:13;14.82;;;8.95;;
54416;SDS011;40326;51.220;7.250;2023-02-18T15:13:42;13.27;;;10.27;;
54416;SDS011;40326;51.220;7.250;2023-02-18T15:16:08;17.35;;;11.05;;
54416;SDS011;40326;51.220;7.250;2023-02-18T15:18:37;16.85;;;10.38;;
54416;SDS011;40326;51.220;7.250;2023-02-18T15:21:04;13.77;;;10.35;;
54416;SDS011;40326;51.220;7.250;2023-02-18T15:23:30;15.27;;;10.35;;
54416;SDS011;40326;51.220;7.250;2023-02-18T15:25:56;15.77;;;10.10;;
54416;SDS011;40326;51.220;7.250;2023-02-18T15:28:22;12.43;;;8.60;;
54416;SDS011;40326;51.220;7.250;2023-02-18T15:30:48;11.40;;;7.38;;
54416;SDS011;40326;51.220;7.250;2023-02-18T15:33:13;12.50;;;8.15;;
54416;SDS011;40326;51.220;7.250;2023-02-18T15:35:40;12.43;;;8.23;;
54416;SDS011;40326;51.220;7.250;2023-02-18T15:38:12;12.45;;;7.72;;
54416;SDS011;40326;51.220;7.250;2023-02-18T15:40:38;11.90;;;8.10;;
54416;SDS011;40326;51.220;7.250;2023-02-18T15:43:04;10.38;;;7.63;;
54416;SDS011;40326;51.220;7.250;2023-02-18T15:45:32;11.57;;;7.80;;
54416;SDS011;40326;51.220;7.250;2023-02-18T15:47:58;10.15;;;7.47;;
54416;SDS011;40326;51.220;7.250;2023-02-18T15:50:47;10.20;;;6.30;;
54416;SDS011;40326;51.220;7.250;2023-02-18T15:53:12;19.40;;;16.55;;
54416;SDS011;40326;51.220;7.250;2023-02-18T15:55:39;9.10;;;6.63;;
54416;SDS011;40326;51.220;7.250;2023-02-18T15:58:07;11.75;;;6.88;;
54416;SDS011;40326;51.220;7.250;2023-02-18T16:00:41;13.02;;;8.68;;
54416;SDS011;40326;51.220;7.250;2023-02-18T16:03:12;13.55;;;9.15;;
54416;SDS011;40326;51.220;7.250;2023-02-18T16:05:39;13.73;;;9.82;;
54416;SDS011;40326;51.220;7.250;2023-02-18T16:08:12;16.42;;;11.63;;
54416;SDS011;40326;51.220;7.250;2023-02-18T16:10:41;14.85;;;11.63;;
54416;SDS011;40326;51.220;7.250;2023-02-18T16:13:10;19.85;;;14.88;;
54416;SDS011;40326;51.220;7.250;2023-02-18T16:15:37;20.15;;;14.25;;
54416;SDS011;40326;51.220;7.250;2023-02-18T16:18:04;20.65;;;15.50;;
54416;SDS011;40326;51.220;7.250;2023-02-18T16:20:35;22.60;;;16.13;;
54416;SDS011;40326;51.220;7.250;2023-02-18T16:23:01;22.08;;;16.20;;
54416;SDS011;40326;51.220;7.250;2023-02-18T16:25:35;25.23;;;16.77;;
54416;SDS011;40326;51.220;7.250;2023-02-18T16:28:09;22.98;;;17.23;;
54416;SDS011;40326;51.220;7.250;2023-02-18T16:30:35;22.92;;;17.17;;
54416;SDS011;40326;51.220;7.250;2023-02-18T16:33:01;23.63;;;17.67;;
54416;SDS011;40326;51.220;7.250;2023-02-18T16:35:27;30.10;;;19.23;;
54416;SDS011;40326;51.220;7.250;2023-02-18T16:37:53;25.65;;;19.67;;
54416;SDS011;40326;51.220;7.250;2023-02-18T16:42:54;32.47;;;20.20;;
54416;SDS011;40326;51.220;7.250;2023-02-18T16:45:30;25.45;;;19.80;;
54416;SDS011;40326;51.220;7.250;2023-02-18T16:47:56;29.63;;;21.17;;
54416;SDS011;40326;51.220;7.250;2023-02-18T16:50:21;31.50;;;23.15;;
54416;SDS011;40326;51.220;7.250;2023-02-18T16:52:47;40.63;;;24.00;;
54416;SDS011;40326;51.220;7.250;2023-02-18T16:57:41;31.20;;;23.48;;